Time;durP1;ratioP1;P1;durP2;ratioP2;P2;SDS_P1;SDS_P2;PMS_P1;PMS_P2;Temp;Humidity;BMP_temperature;BMP_pressure;BME280_temperature;BME280_humidity;BME280_pressure;Samples;Min_cycle;Max_cycle;Signal;HPM_P1;HPM_P2
2021/09/06 00:00:57;;;;;;;7.30;6.60;;;;;;;16.25;100.00;96941.66;5031833;28;20214;-78
2021/09/06 00:03:25;;;;;;;6.27;5.67;;;;;;;16.10;100.00;96932.81;5032169;28;20198;-77
2021/09/06 00:05:53;;;;;;;8.70;6.50;;;;;;;16.04;100.00;96938.84;5031986;28;20265;-77
2021/09/06 00:08:21;;;;;;;6.63;5.90;;;;;;;16.07;100.00;96933.16;5032079;28;20228;-77
2021/09/06 00:10:50;;;;;;;6.40;5.80;;;;;;;16.01;100.00;96937.34;5031703;28;20751;-78
2021/09/06 00:13:18;;;;;;;6.53;5.93;;;;;;;16.10;100.00;96930.16;5032576;28;20288;-78
2021/09/06 00:15:45;;;;;;;7.20;6.50;;;;;;;16.11;100.00;96930.00;5032182;28;20639;-77
2021/09/06 00:18:14;;;;;;;7.17;5.03;;;;;;;16.02;100.00;96925.75;5031624;28;20283;-77
2021/09/06 00:20:42;;;;;;;11.23;6.30;;;;;;;16.20;100.00;96929.91;5031777;28;20205;-77
2021/09/06 00:23:11;;;;;;;7.43;6.27;;;;;;;16.00;100.00;96927.72;5031963;28;20738;-77
2021/09/06 00:25:38;;;;;;;6.77;5.93;;;;;;;16.18;100.00;96916.84;5031941;28;20206;-77
2021/09/06 00:28:06;;;;;;;5.70;5.20;;;;;;;16.33;100.00;96922.19;5031481;28;20235;-78
2021/09/06 00:30:33;;;;;;;8.37;5.87;;;;;;;16.24;100.00;96928.56;5031597;28;20206;-77
2021/09/06 00:33:01;;;;;;;6.57;5.67;;;;;;;16.15;100.00;96925.16;5032058;28;20201;-77
2021/09/06 00:35:30;;;;;;;6.33;5.73;;;;;;;16.15;100.00;96931.28;5031508;28;20236;-77
2021/09/06 00:37:57;;;;;;;5.63;5.07;;;;;;;16.26;100.00;96937.19;5031610;28;20690;-77
2021/09/06 00:40:24;;;;;;;5.80;5.30;;;;;;;16.24;100.00;96929.38;5031275;28;20225;-78
2021/09/06 00:42:52;;;;;;;7.93;5.00;;;;;;;16.22;100.00;96930.59;5031777;28;20205;-77
2021/09/06 00:45:20;;;;;;;6.80;6.03;;;;;;;16.29;100.00;96947.44;5031626;28;20708;-77
2021/09/06 00:47:47;;;;;;;6.77;5.27;;;;;;;16.35;100.00;96941.44;5031474;28;20265;-77
2021/09/06 00:50:17;;;;;;;6.03;5.43;;;;;;;16.28;100.00;96935.16;5031506;28;20236;-77
2021/09/06 00:52:47;;;;;;;5.93;5.10;;;;;;;16.14;100.00;96936.75;5031741;28;20242;-78
2021/09/06 00:55:18;;;;;;;6.67;5.63;;;;;;;16.12;100.00;96930.81;5031435;28;20235;-77
2021/09/06 00:57:46;;;;;;;6.90;6.23;;;;;;;16.06;100.00;96936.81;5031753;28;20190;-77
2021/09/06 01:00:15;;;;;;;7.17;5.70;;;;;;;16.27;100.00;96936.97;5031166;28;20254;-78
2021/09/06 01:02:43;;;;;;;6.20;5.60;;;;;;;16.33;100.00;96933.63;5031186;28;20212;-77
2021/09/06 01:05:13;;;;;;;6.23;5.63;;;;;;;16.36;100.00;96933.28;5030930;28;20282;-77
2021/09/06 01:07:40;;;;;;;7.10;5.63;;;;;;;16.32;100.00;96939.94;5030869;28;20220;-77
2021/09/06 01:10:12;;;;;;;6.57;5.60;;;;;;;16.16;100.00;96942.72;5030064;28;20202;-77
2021/09/06 01:12:40;;;;;;;7.60;6.47;;;;;;;16.19;100.00;96934.41;5031135;28;20251;-77
2021/09/06 01:15:10;;;;;;;6.90;6.13;;;;;;;16.06;100.00;96937.63;5030997;28;20582;-77
2021/09/06 01:17:38;;;;;;;6.70;5.60;;;;;;;16.15;100.00;96941.06;5030902;28;20245;-77
2021/09/06 01:20:07;;;;;;;6.57;5.00;;;;;;;16.27;100.00;96942.28;5030888;28;20188;-77
2021/09/06 01:22:34;;;;;;;8.20;4.90;;;;;;;16.17;100.00;96941.69;5030853;28;20229;-77
2021/09/06 01:25:02;;;;;;;6.10;5.50;;;;;;;16.15;100.00;96936.59;5030568;28;20202;-77
2021/09/06 01:27:31;;;;;;;6.63;5.70;;;;;;;16.25;100.00;96946.16;5030767;28;20704;-77
2021/09/06 01:29:59;;;;;;;7.23;5.33;;;;;;;16.29;100.00;96942.94;5031066;28;20225;-77
2021/09/06 01:32:26;;;;;;;6.60;5.90;;;;;;;16.24;100.00;96942.63;5030519;28;20266;-77
2021/09/06 01:34:54;;;;;;;5.50;5.00;;;;;;;16.23;100.00;96946.31;5030975;28;20201;-77
2021/09/06 01:37:21;;;;;;;6.20;5.60;;;;;;;16.14;100.00;96944.69;5030587;28;20198;-77
2021/09/06 01:39:49;;;;;;;6.47;5.40;;;;;;;16.10;100.00;96943.41;5030981;28;20646;-77
2021/09/06 01:42:16;;;;;;;5.80;5.30;;;;;;;16.19;100.00;96945.00;5030554;28;20230;-77
2021/09/06 01:44:45;;;;;;;6.27;5.53;;;;;;;16.17;100.00;96949.66;5030660;28;20201;-77
2021/09/06 01:47:13;;;;;;;7.10;5.57;;;;;;;16.34;100.00;96956.50;5030395;28;20234;-77
2021/09/06 01:49:40;;;;;;;6.93;6.23;;;;;;;16.26;100.00;96953.09;5030849;28;20590;-77
2021/09/06 01:52:08;;;;;;;6.73;6.03;;;;;;;16.27;100.00;96952.91;5030381;28;20227;-77
2021/09/06 01:54:35;;;;;;;6.40;5.80;;;;;;;16.24;100.00;96947.94;5030715;28;20593;-77
2021/09/06 01:57:03;;;;;;;6.20;5.30;;;;;;;16.16;100.00;96948.84;5030254;28;20202;-78
2021/09/06 01:59:31;;;;;;;7.60;5.80;;;;;;;15.95;100.00;96953.97;5030551;28;20194;-77
2021/09/06 02:01:59;;;;;;;7.20;5.47;;;;;;;15.92;100.00;96949.81;5030194;28;20199;-78
2021/09/06 02:04:27;;;;;;;14.97;6.53;;;;;;;15.96;100.00;96952.13;5030435;28;20202;-78
2021/09/06 02:06:54;;;;;;;6.10;5.50;;;;;;;16.06;100.00;96939.47;5030095;28;20683;-77
2021/09/06 02:09:22;;;;;;;5.90;5.30;;;;;;;15.81;100.00;96939.63;5030310;28;20202;-77
2021/09/06 02:11:49;;;;;;;6.67;5.63;;;;;;;15.90;100.00;96945.72;5030230;28;20206;-77
2021/09/06 02:14:16;;;;;;;5.97;5.37;;;;;;;15.84;100.00;96946.41;5030161;28;20202;-77
2021/09/06 02:16:44;;;;;;;5.63;5.17;;;;;;;15.36;100.00;96949.09;5030369;28;20284;-78
2021/09/06 02:19:13;;;;;;;6.90;6.20;;;;;;;15.52;100.00;96940.25;5029895;28;20233;-77
2021/09/06 02:21:40;;;;;;;6.23;5.43;;;;;;;15.48;100.00;96946.06;5030146;28;20292;-77
2021/09/06 02:24:07;;;;;;;8.23;6.20;;;;;;;15.43;100.00;96942.09;5029965;28;20198;-77
2021/09/06 02:26:36;;;;;;;6.10;5.30;;;;;;;15.18;100.00;96953.81;5030069;28;20622;-77
2021/09/06 02:29:04;;;;;;;7.67;6.33;;;;;;;15.41;100.00;96941.47;5029921;28;20228;-77
2021/09/06 02:31:31;;;;;;;7.23;5.40;;;;;;;15.42;100.00;96943.13;5029880;28;20243;-77
2021/09/06 02:33:59;;;;;;;9.77;5.93;;;;;;;15.52;100.00;96944.72;5029632;28;20208;-77
2021/09/06 02:36:28;;;;;;;8.57;5.97;;;;;;;15.65;100.00;96951.09;5029868;28;20666;-77
2021/09/06 02:38:56;;;;;;;6.47;5.70;;;;;;;15.76;100.00;96942.00;5029942;28;20226;-78
2021/09/06 02:41:23;;;;;;;5.90;5.37;;;;;;;15.85;100.00;96943.56;5029639;28;20206;-78
2021/09/06 02:43:50;;;;;;;5.80;5.30;;;;;;;15.89;100.00;96949.34;5029798;28;20270;-77
2021/09/06 02:46:18;;;;;;;6.97;6.27;;;;;;;15.95;100.00;96958.44;5030023;28;20206;-78
2021/09/06 02:48:45;;;;;;;7.10;5.70;;;;;;;15.95;100.00;96961.09;5029602;28;20784;-78
2021/09/06 02:51:13;;;;;;;6.43;5.83;;;;;;;15.82;100.00;96953.69;5029587;28;20292;-78
2021/09/06 02:53:41;;;;;;;6.93;5.67;;;;;;;15.74;100.00;96943.97;5029710;28;20232;-77
2021/09/06 02:56:09;;;;;;;6.57;5.87;;;;;;;15.70;100.00;96953.28;5029544;28;20729;-77
2021/09/06 02:58:36;;;;;;;6.27;5.60;;;;;;;15.69;100.00;96956.94;5029459;28;20201;-78
2021/09/06 03:01:03;;;;;;;8.13;6.53;;;;;;;15.64;100.00;96954.75;5029270;28;20737;-78
2021/09/06 03:03:31;;;;;;;5.90;5.30;;;;;;;15.72;100.00;96959.22;5029439;28;20213;-77
2021/09/06 03:05:59;;;;;;;5.60;5.10;;;;;;;15.66;100.00;96957.28;5029355;28;20202;-77
2021/09/06 03:08:26;;;;;;;5.90;5.33;;;;;;;15.75;100.00;96963.34;5029296;28;20228;-77
2021/09/06 03:10:55;;;;;;;5.90;5.30;;;;;;;15.69;100.00;96959.59;5029170;28;20204;-78
2021/09/06 03:13:22;;;;;;;5.50;5.00;;;;;;;15.68;100.00;96958.75;5029510;28;20205;-78
2021/09/06 03:15:50;;;;;;;7.17;5.93;;;;;;;15.75;100.00;96963.34;5029103;28;20203;-78
2021/09/06 03:18:17;;;;;;;6.37;5.47;;;;;;;15.75;100.00;96960.69;5029000;28;20243;-78
2021/09/06 03:20:45;;;;;;;6.20;5.43;;;;;;;15.68;100.00;96963.22;5028827;28;20197;-78
2021/09/06 03:23:12;;;;;;;6.53;5.30;;;;;;;15.76;100.00;96965.84;5029148;28;20205;-78
2021/09/06 03:25:40;;;;;;;6.23;5.47;;;;;;;15.60;100.00;96969.34;5029266;28;20307;-77
2021/09/06 03:28:09;;;;;;;7.17;5.87;;;;;;;15.86;100.00;96966.44;5029019;28;20225;-78
2021/09/06 03:30:36;;;;;;;6.20;5.60;;;;;;;15.78;100.00;96970.97;5029167;28;20208;-78
2021/09/06 03:33:03;;;;;;;7.10;5.50;;;;;;;15.91;100.00;96960.63;5028584;28;20590;-79
2021/09/06 03:35:31;;;;;;;8.70;6.03;;;;;;;15.64;100.00;96975.13;5029102;28;20220;-78
2021/09/06 03:37:58;;;;;;;6.37;5.67;;;;;;;15.57;100.00;96971.53;5028934;28;20201;-78
2021/09/06 03:40:25;;;;;;;5.90;5.37;;;;;;;15.38;100.00;96973.59;5029121;28;20640;-77
2021/09/06 03:42:53;;;;;;;5.60;5.00;;;;;;;15.31;100.00;96969.97;5028759;28;20207;-77
2021/09/06 03:45:22;;;;;;;6.57;5.80;;;;;;;15.40;100.00;96971.59;5028869;28;20194;-77
2021/09/06 03:47:49;;;;;;;6.57;5.87;;;;;;;15.42;100.00;96982.84;5034287;28;20283;-77
2021/09/06 03:50:16;;;;;;;6.90;5.90;;;;;;;15.25;100.00;96977.78;5048446;28;20212;-78
2021/09/06 03:52:44;;;;;;;7.60;6.73;;;;;;;15.44;100.00;96980.84;5048659;28;20293;-78
2021/09/06 03:55:11;;;;;;;6.17;5.60;;;;;;;15.40;100.00;96989.31;5048091;28;20209;-78
2021/09/06 03:57:38;;;;;;;8.33;6.40;;;;;;;15.26;100.00;96982.91;5048624;28;20198;-77
2021/09/06 04:00:07;;;;;;;6.17;5.63;;;;;;;15.33;100.00;96980.41;5048530;28;20215;-77
2021/09/06 04:02:36;;;;;;;6.80;6.07;;;;;;;15.46;100.00;96988.63;5048269;28;20195;-76
2021/09/06 04:05:04;;;;;;;6.90;6.20;;;;;;;15.67;100.00;96988.06;5047834;28;20290;-76
2021/09/06 04:07:31;;;;;;;7.87;5.47;;;;;;;15.84;100.00;96996.78;5048325;28;20202;-77
2021/09/06 04:09:59;;;;;;;7.83;5.77;;;;;;;15.56;100.00;96999.03;5048223;28;20197;-77
2021/09/06 04:12:26;;;;;;;6.53;5.93;;;;;;;15.61;100.00;97000.16;5048147;28;20208;-77
2021/09/06 04:14:53;;;;;;;7.63;5.70;;;;;;;15.44;100.00;97009.16;5047836;28;20204;-77
2021/09/06 04:17:20;;;;;;;6.33;5.57;;;;;;;15.55;100.00;97010.59;5047928;28;20241;-77
2021/09/06 04:19:49;;;;;;;6.80;6.13;;;;;;;15.45;100.00;97013.47;5047963;28;20248;-77
2021/09/06 04:22:16;;;;;;;8.50;6.27;;;;;;;15.30;100.00;97021.28;5047872;28;20201;-77
2021/09/06 04:24:44;;;;;;;8.23;6.40;;;;;;;15.63;100.00;97031.78;5047903;28;20196;-77
2021/09/06 04:27:11;;;;;;;7.53;5.60;;;;;;;15.64;100.00;97033.44;5047880;28;20311;-77
2021/09/06 04:29:38;;;;;;;5.80;5.30;;;;;;;15.61;100.00;97031.94;5047839;28;20221;-77
2021/09/06 04:32:06;;;;;;;6.67;5.97;;;;;;;15.66;100.00;97024.34;5047570;28;20202;-77
2021/09/06 04:34:34;;;;;;;7.10;6.40;;;;;;;15.72;100.00;97030.78;5048345;28;20226;-77
2021/09/06 04:37:04;;;;;;;8.27;6.40;;;;;;;15.79;100.00;97028.25;5047858;28;20204;-77
2021/09/06 04:39:32;;;;;;;6.50;5.77;;;;;;;15.80;100.00;97035.25;5048147;28;20680;-77
2021/09/06 04:41:59;;;;;;;7.47;6.67;;;;;;;15.72;100.00;97032.59;5047603;28;20238;-77
2021/09/06 04:44:26;;;;;;;7.80;6.17;;;;;;;15.35;100.00;97039.34;5047942;28;20194;-77
2021/09/06 04:46:54;;;;;;;6.33;5.73;;;;;;;15.32;100.00;97037.03;5050502;28;20244;-77
2021/09/06 04:49:21;;;;;;;6.77;6.17;;;;;;;15.48;100.00;97036.13;5051170;28;20224;-78
2021/09/06 04:51:48;;;;;;;7.73;5.90;;;;;;;15.67;100.00;97046.38;5051082;28;20302;-78
2021/09/06 04:54:18;;;;;;;6.47;5.77;;;;;;;15.89;100.00;97042.13;5051444;28;20229;-78
2021/09/06 04:56:46;;;;;;;8.20;6.40;;;;;;;16.07;100.00;97044.53;5050979;28;20189;-78
2021/09/06 04:59:13;;;;;;;7.23;6.50;;;;;;;16.09;100.00;97042.53;5051208;28;20204;-78
2021/09/06 05:01:40;;;;;;;9.33;6.33;;;;;;;15.86;100.00;97039.81;5050624;28;20677;-78
2021/09/06 05:04:08;;;;;;;8.17;6.40;;;;;;;15.89;100.00;97042.94;5050974;28;20285;-77
2021/09/06 05:06:35;;;;;;;7.87;6.70;;;;;;;16.02;100.00;97041.59;5050809;28;20203;-77
2021/09/06 05:09:02;;;;;;;7.73;6.30;;;;;;;16.14;100.00;97040.16;5050980;28;20282;-76
2021/09/06 05:11:32;;;;;;;6.37;5.77;;;;;;;16.25;100.00;97031.84;5050578;28;20204;-77
2021/09/06 05:13:59;;;;;;;7.67;6.07;;;;;;;16.19;100.00;97048.44;5051311;28;20285;-77
2021/09/06 05:16:27;;;;;;;6.03;5.47;;;;;;;16.29;100.00;97051.72;5050708;28;20222;-77
2021/09/06 05:18:54;;;;;;;6.33;5.70;;;;;;;16.16;100.00;97054.09;5050200;28;20228;-76
2021/09/06 05:21:22;;;;;;;9.67;6.03;;;;;;;16.22;100.00;97052.59;5050588;28;20264;-77
2021/09/06 05:23:49;;;;;;;7.07;5.50;;;;;;;16.18;100.00;97052.09;5050737;28;20664;-76
2021/09/06 05:26:16;;;;;;;7.00;5.50;;;;;;;16.08;100.00;97051.50;5050307;28;20252;-77
2021/09/06 05:28:45;;;;;;;6.17;5.23;;;;;;;16.15;100.00;97047.97;5050569;28;20220;-77
2021/09/06 05:31:14;;;;;;;8.80;5.47;;;;;;;16.14;100.00;97056.09;5050218;28;20207;-77
2021/09/06 05:33:41;;;;;;;6.47;5.83;;;;;;;15.96;100.00;97063.47;5050494;28;20200;-77
2021/09/06 05:36:12;;;;;;;6.20;4.90;;;;;;;16.16;100.00;97060.22;5038369;28;20249;-78
2021/09/06 05:38:39;;;;;;;6.10;5.60;;;;;;;16.39;100.00;97054.97;5030427;28;20243;-78
2021/09/06 05:41:07;;;;;;;5.57;5.07;;;;;;;16.26;100.00;97060.00;5030633;28;20207;-78
2021/09/06 05:43:35;;;;;;;6.30;5.40;;;;;;;16.32;100.00;97069.94;5030259;28;20254;-78
2021/09/06 05:46:04;;;;;;;5.63;5.03;;;;;;;16.58;100.00;97055.50;5029874;28;20568;-77
2021/09/06 05:48:31;;;;;;;6.37;5.40;;;;;;;16.83;100.00;97061.47;5030578;28;20754;-77
2021/09/06 05:50:58;;;;;;;7.07;5.33;;;;;;;17.24;100.00;97066.41;5030058;28;20248;-78
2021/09/06 05:53:25;;;;;;;5.97;5.40;;;;;;;17.39;100.00;97079.72;5030518;28;20278;-78
2021/09/06 05:55:53;;;;;;;6.90;5.27;;;;;;;17.33;100.00;97089.25;5031910;28;20205;-77
2021/09/06 05:58:20;;;;;;;8.27;5.30;;;;;;;17.28;100.00;97094.28;5050092;28;20230;-77
2021/09/06 06:00:47;;;;;;;6.27;5.67;;;;;;;17.17;100.00;97092.88;5049698;28;20201;-77
2021/09/06 06:03:16;;;;;;;14.07;5.73;;;;;;;17.23;100.00;97094.00;5050011;28;20620;-77
2021/09/06 06:05:43;;;;;;;6.80;4.47;;;;;;;17.09;100.00;97109.72;5049462;28;20197;-78
2021/09/06 06:08:11;;;;;;;10.40;5.23;;;;;;;17.08;100.00;97097.44;5050016;28;20205;-77
2021/09/06 06:10:38;;;;;;;5.60;5.10;;;;;;;17.19;100.00;97119.28;5049602;28;20292;-77
2021/09/06 06:13:05;;;;;;;5.63;4.57;;;;;;;17.27;100.00;97112.03;5050108;28;20292;-77
2021/09/06 06:15:32;;;;;;;6.67;5.13;;;;;;;17.35;100.00;97119.09;5049274;28;20258;-78
2021/09/06 06:18:00;;;;;;;5.37;4.87;;;;;;;17.46;100.00;97109.91;5049797;28;20236;-77
2021/09/06 06:20:28;;;;;;;6.60;4.83;;;;;;;17.43;100.00;97112.91;5049948;28;20201;-78
2021/09/06 06:22:56;;;;;;;6.17;5.27;;;;;;;17.51;100.00;97118.97;5049898;28;20236;-77
2021/09/06 06:25:23;;;;;;;5.37;4.87;;;;;;;17.85;100.00;97130.13;5049213;28;20202;-77
2021/09/06 06:27:50;;;;;;;7.10;5.17;;;;;;;17.78;100.00;97138.81;5049581;28;20578;-77
2021/09/06 06:30:18;;;;;;;4.63;3.97;;;;;;;18.11;100.00;97133.13;5049552;28;20229;-77
2021/09/06 06:32:45;;;;;;;5.87;5.03;;;;;;;18.36;100.00;97140.78;5049409;28;20632;-78
2021/09/06 06:35:13;;;;;;;5.70;5.20;;;;;;;18.51;100.00;97153.06;5049030;28;20206;-78
2021/09/06 06:37:41;;;;;;;5.37;4.87;;;;;;;18.59;100.00;97153.97;5049474;28;20194;-78
2021/09/06 06:40:10;;;;;;;6.03;5.13;;;;;;;18.61;100.00;97155.44;5049618;28;20267;-80
2021/09/06 06:42:38;;;;;;;5.47;4.70;;;;;;;18.72;100.00;97167.47;5049344;28;20202;-79
2021/09/06 06:45:06;;;;;;;5.07;4.57;;;;;;;18.37;100.00;97167.25;5049195;28;20673;-80
2021/09/06 06:47:33;;;;;;;8.83;5.23;;;;;;;18.35;100.00;97165.78;5049613;28;20206;-80
2021/09/06 06:50:00;;;;;;;4.97;4.47;;;;;;;18.35;100.00;97158.59;5049646;28;20278;-80
2021/09/06 06:52:28;;;;;;;8.67;5.00;;;;;;;18.68;100.00;97147.53;5049135;28;20204;-80
2021/09/06 06:54:57;;;;;;;5.23;4.73;;;;;;;18.86;100.00;97155.94;5049297;28;20194;-80
2021/09/06 06:57:24;;;;;;;5.60;4.97;;;;;;;19.25;100.00;97166.16;5049337;28;20194;-81
2021/09/06 06:59:51;;;;;;;5.57;4.67;;;;;;;19.59;100.00;97174.44;5049234;28;20563;-81
2021/09/06 07:02:21;;;;;;;9.17;5.33;;;;;;;19.91;100.00;97187.22;5048928;28;20229;-80
2021/09/06 07:04:48;;;;;;;6.70;5.00;;;;;;;19.98;100.00;97186.44;5049236;28;20266;-81
2021/09/06 07:07:16;;;;;;;10.67;5.57;;;;;;;20.01;100.00;97175.38;5048976;28;20646;-81
2021/09/06 07:09:43;;;;;;;7.07;5.07;;;;;;;20.09;100.00;97189.41;5048529;28;20745;-81
2021/09/06 07:12:12;;;;;;;5.60;4.60;;;;;;;20.39;100.00;97194.50;5048831;28;20201;-80
2021/09/06 07:14:39;;;;;;;16.50;5.93;;;;;;;20.39;100.00;97191.81;5049421;28;20222;-80
2021/09/06 07:17:06;;;;;;;17.13;5.67;;;;;;;20.26;100.00;97202.41;5048887;28;20705;-79
2021/09/06 07:19:33;;;;;;;6.90;4.33;;;;;;;20.07;100.00;97201.28;5049142;28;20232;-79
2021/09/06 07:22:01;;;;;;;5.10;4.03;;;;;;;19.93;100.00;97203.88;5048921;28;20644;-79
2021/09/06 07:24:28;;;;;;;4.30;3.90;;;;;;;19.90;100.00;97204.25;5049010;28;20737;-80
2021/09/06 07:26:55;;;;;;;4.97;4.47;;;;;;;20.07;100.00;97210.13;5048811;28;20197;-79
2021/09/06 07:29:24;;;;;;;79.47;12.00;;;;;;;20.42;100.00;97218.13;5049166;28;20225;-79
2021/09/06 07:31:52;;;;;;;6.47;4.33;;;;;;;20.77;100.00;97223.44;5049066;28;20589;-79
2021/09/06 07:34:19;;;;;;;4.83;4.33;;;;;;;21.07;100.00;97232.81;5048828;28;20229;-80
2021/09/06 07:36:46;;;;;;;7.20;4.67;;;;;;;20.90;100.00;97234.19;5048688;28;20222;-80
2021/09/06 07:39:16;;;;;;;4.37;3.97;;;;;;;20.73;100.00;97240.91;5048755;28;20201;-79
2021/09/06 07:41:43;;;;;;;14.10;4.77;;;;;;;21.09;100.00;97238.78;5048683;28;20288;-80
2021/09/06 07:44:11;;;;;;;4.50;3.70;;;;;;;21.41;100.00;97244.44;5048389;28;20288;-79
2021/09/06 07:46:40;;;;;;;5.03;4.50;;;;;;;21.66;100.00;97242.00;5048953;28;20666;-80
2021/09/06 07:49:07;;;;;;;5.63;5.03;;;;;;;20.96;100.00;97243.28;5048399;28;20754;-80
2021/09/06 07:51:34;;;;;;;8.00;4.60;;;;;;;21.13;100.00;97241.88;5048806;28;20198;-80
2021/09/06 07:54:02;;;;;;;5.20;4.03;;;;;;;21.33;100.00;97239.22;5048569;28;20285;-80
2021/09/06 07:56:29;;;;;;;11.73;4.90;;;;;;;22.03;100.00;97247.75;5048851;28;20209;-79
2021/09/06 07:58:56;;;;;;;4.47;3.77;;;;;;;22.26;100.00;97256.19;5048616;28;20190;-80
2021/09/06 08:01:24;;;;;;;5.83;5.03;;;;;;;21.91;100.00;97265.47;5048257;28;20208;-79
2021/09/06 08:03:52;;;;;;;4.17;3.63;;;;;;;22.00;100.00;97256.22;5048499;28;20198;-79
2021/09/06 08:06:20;;;;;;;4.63;3.90;;;;;;;21.75;100.00;97264.84;5048370;28;20704;-80
2021/09/06 08:08:47;;;;;;;4.93;4.43;;;;;;;21.61;100.00;97247.13;5048336;28;20677;-79
2021/09/06 08:11:14;;;;;;;41.47;8.83;;;;;;;21.82;100.00;97252.31;5048322;28;20226;-79
2021/09/06 08:13:42;;;;;;;55.13;9.43;;;;;;;22.73;100.00;97262.28;5048656;28;20206;-79
2021/09/06 08:16:09;;;;;;;5.17;4.40;;;;;;;22.57;100.00;97260.06;5048594;28;20225;-79
2021/09/06 08:18:36;;;;;;;15.03;6.00;;;;;;;23.04;100.00;97252.69;5048049;28;20270;-80
2021/09/06 08:21:05;;;;;;;5.13;4.40;;;;;;;23.15;100.00;97256.56;5051065;28;20209;-80
2021/09/06 08:23:32;;;;;;;4.00;3.60;;;;;;;22.97;100.00;97266.13;5035928;28;20220;-80
2021/09/06 08:26:00;;;;;;;5.90;4.30;;;;;;;22.83;100.00;97267.19;5030806;28;20203;-80
2021/09/06 08:28:27;;;;;;;8.03;4.13;;;;;;;22.66;100.00;97274.06;5031685;28;20203;-79
2021/09/06 08:30:54;;;;;;;7.07;4.27;;;;;;;23.04;100.00;97265.28;5031139;28;20313;-79
2021/09/06 08:33:22;;;;;;;9.50;4.50;;;;;;;23.53;100.00;97264.59;5031619;28;20679;-80
2021/09/06 08:35:49;;;;;;;13.77;4.30;;;;;;;23.43;100.00;97270.44;5030886;28;20230;-80
2021/09/06 08:38:18;;;;;;;4.77;4.27;;;;;;;23.76;100.00;97272.09;5031784;28;20202;-80
2021/09/06 08:40:46;;;;;;;27.83;6.33;;;;;;;24.28;100.00;97278.09;5031413;28;20667;-79
2021/09/06 08:43:14;;;;;;;4.83;4.20;;;;;;;24.28;100.00;97274.56;5031803;28;20198;-79
2021/09/06 08:45:42;;;;;;;5.30;3.60;;;;;;;24.27;100.00;97275.59;5031171;28;20230;-79
2021/09/06 08:48:09;;;;;;;5.13;3.70;;;;;;;24.54;100.00;97281.56;5031534;28;20239;-79
2021/09/06 08:50:36;;;;;;;4.40;4.00;;;;;;;24.62;100.00;97283.97;5031163;28;20312;-79
2021/09/06 08:53:06;;;;;;;9.50;4.90;;;;;;;24.05;100.00;97284.06;5031069;28;20293;-80
2021/09/06 08:55:38;;;;;;;3.80;3.50;;;;;;;23.76;100.00;97285.50;5030787;28;20202;-79
2021/09/06 08:58:06;;;;;;;4.03;3.63;;;;;;;24.78;100.00;97278.00;5031216;28;20278;-79
2021/09/06 09:00:34;;;;;;;4.20;3.80;;;;;;;24.74;100.00;97284.06;5030797;28;20259;-79
2021/09/06 09:03:01;;;;;;;33.17;5.97;;;;;;;24.10;100.00;97291.47;5031529;28;20203;-79
2021/09/06 09:05:29;;;;;;;13.47;4.13;;;;;;;23.52;100.00;97287.09;5030881;28;20203;-79
2021/09/06 09:07:57;;;;;;;8.07;4.00;;;;;;;24.01;100.00;97277.50;5031020;28;20255;-78
2021/09/06 09:10:30;;;;;;;3.47;3.17;;;;;;;24.09;100.00;97285.25;5030968;28;20312;-78
2021/09/06 09:13:07;;;;;;;11.33;4.03;;;;;;;24.39;100.00;97290.78;5030756;28;20199;-78
2021/09/06 09:15:35;;;;;;;13.07;4.43;;;;;;;24.48;100.00;97280.59;5030776;28;20255;-79
2021/09/06 09:18:03;;;;;;;5.20;4.20;;;;;;;24.76;100.00;97281.94;5030543;28;20233;-78
2021/09/06 09:20:38;;;;;;;13.30;4.97;;;;;;;24.34;100.00;97276.38;5030943;28;20198;-79
2021/09/06 09:23:06;;;;;;;4.40;4.00;;;;;;;24.51;100.00;97274.78;5030832;28;20198;-79
2021/09/06 09:25:34;;;;;;;4.70;3.60;;;;;;;24.19;100.00;97274.03;5030596;28;20207;-79
2021/09/06 09:28:02;;;;;;;5.20;3.50;;;;;;;24.55;100.00;97281.34;5030846;28;20211;-79
2021/09/06 09:30:33;;;;;;;4.67;3.70;;;;;;;24.74;100.00;97279.50;5030058;28;20722;-79
2021/09/06 09:33:08;;;;;;;3.90;3.60;;;;;;;24.63;100.00;97277.56;5030616;28;20209;-79
2021/09/06 09:35:36;;;;;;;4.30;3.87;;;;;;;25.22;100.00;97273.38;5030360;28;20271;-78
2021/09/06 09:38:05;;;;;;;5.17;4.17;;;;;;;24.67;100.00;97281.44;5030537;28;20248;-79
2021/09/06 09:40:33;;;;;;;3.90;3.27;;;;;;;24.19;100.00;97274.84;5030774;28;20195;-78
2021/09/06 09:43:01;;;;;;;3.70;3.37;;;;;;;24.50;100.00;97275.00;5030699;28;20668;-78
2021/09/06 09:45:28;;;;;;;4.57;3.77;;;;;;;25.12;100.00;97276.59;5030393;28;20252;-78
2021/09/06 09:48:00;;;;;;;3.30;3.00;;;;;;;25.40;100.00;97288.66;5030470;28;20702;-78
2021/09/06 09:50:30;;;;;;;4.27;3.60;;;;;;;25.89;100.00;97285.91;5030327;28;20253;-78
2021/09/06 09:52:57;;;;;;;6.00;3.50;;;;;;;25.65;100.00;97277.72;5030556;28;20202;-78
2021/09/06 09:55:26;;;;;;;4.20;3.50;;;;;;;25.45;100.00;97283.38;5030243;28;20259;-77
2021/09/06 09:57:55;;;;;;;4.43;3.87;;;;;;;24.99;100.00;97275.91;5030312;28;20198;-78
2021/09/06 10:00:23;;;;;;;4.27;3.87;;;;;;;24.29;100.00;97268.97;5030422;28;20202;-78
2021/09/06 10:02:54;;;;;;;4.00;3.50;;;;;;;24.99;100.00;97273.22;5038564;28;20682;-79
2021/09/06 10:05:28;;;;;;;4.53;4.10;;;;;;;24.51;100.00;97265.91;5031639;28;20228;-80
2021/09/06 10:07:55;;;;;;;4.07;3.63;;;;;;;24.92;100.00;97265.22;5029999;28;20267;-80
2021/09/06 10:10:23;;;;;;;4.97;3.83;;;;;;;24.92;100.00;97262.53;5032941;28;20233;-79
2021/09/06 10:13:04;;;;;;;5.33;3.70;;;;;;;24.20;100.00;97267.59;5050189;28;20281;-80
2021/09/06 10:15:33;;;;;;;3.73;3.43;;;;;;;24.50;100.00;97265.09;5049462;28;20193;-80
2021/09/06 10:18:01;;;;;;;4.17;3.77;;;;;;;24.90;100.00;97268.16;5049447;28;20280;-80
2021/09/06 10:20:30;;;;;;;4.80;4.30;;;;;;;24.55;100.00;97275.16;5049736;28;20194;-80
2021/09/06 10:23:06;;;;;;;3.93;3.53;;;;;;;25.14;100.00;97269.09;5049516;28;20662;-80
2021/09/06 10:25:34;;;;;;;5.07;3.53;;;;;;;25.37;100.00;97275.66;5049118;28;20288;-79
2021/09/06 10:28:05;;;;;;;4.37;3.60;;;;;;;25.07;100.00;97268.34;5049377;28;20202;-80
2021/09/06 10:30:38;;;;;;;4.93;3.33;;;;;;;24.42;100.00;97273.44;5049402;28;20582;-79
2021/09/06 10:33:06;;;;;;;4.33;3.93;;;;;;;25.00;100.00;97269.47;5049568;28;20690;-79
2021/09/06 10:35:36;;;;;;;3.83;3.50;;;;;;;24.89;100.00;97260.28;5049551;28;20589;-78
2021/09/06 10:38:07;;;;;;;5.77;3.80;;;;;;;24.67;100.00;97268.00;5049531;28;20205;-79
2021/09/06 10:40:37;;;;;;;4.93;3.60;;;;;;;24.85;100.00;97270.69;5049142;28;20189;-79
2021/09/06 10:43:17;;;;;;;4.03;3.47;;;;;;;24.58;100.00;97258.59;5049855;28;20202;-78
2021/09/06 10:45:46;;;;;;;3.70;3.40;;;;;;;24.22;100.00;97262.03;5049096;28;20239;-79
2021/09/06 10:48:20;;;;;;;4.20;3.87;;;;;;;24.86;100.00;97252.69;5049410;28;20197;-79
2021/09/06 10:50:49;;;;;;;3.77;3.47;;;;;;;25.00;100.00;97256.03;5048837;28;20212;-78
2021/09/06 10:53:18;;;;;;;3.90;3.60;;;;;;;24.78;100.00;97258.38;5049317;28;20202;-79
2021/09/06 10:55:50;;;;;;;4.40;4.00;;;;;;;24.87;100.00;97252.47;5049216;28;20209;-79
2021/09/06 10:58:18;;;;;;;4.17;3.77;;;;;;;25.09;100.00;97254.69;5049356;28;20206;-78
2021/09/06 11:00:51;;;;;;;4.93;3.97;;;;;;;24.84;100.00;97250.22;5049020;28;20674;-78
2021/09/06 11:03:19;;;;;;;4.63;4.17;;;;;;;24.71;100.00;97246.88;5049623;28;20188;-79
2021/09/06 11:05:54;;;;;;;4.33;3.93;;;;;;;24.53;100.00;97245.81;5048585;28;20268;-78
2021/09/06 11:08:26;;;;;;;4.03;3.73;;;;;;;24.88;100.00;97253.28;5049520;28;20220;-78
2021/09/06 11:10:53;;;;;;;4.70;4.03;;;;;;;25.13;100.00;97253.19;5049335;28;20222;-78
2021/09/06 11:13:21;;;;;;;4.33;3.93;;;;;;;25.16;100.00;97250.06;5048811;28;20189;-78
2021/09/06 11:15:49;;;;;;;4.32;3.92;;;;;;;25.09;100.00;97252.81;5048607;28;20288;-79
2021/09/06 11:18:16;;;;;;;4.13;3.63;;;;;;;25.04;100.00;97250.00;5048997;28;20238;-78
2021/09/06 11:20:47;;;;;;;5.37;3.83;;;;;;;24.63;100.00;97242.63;5048895;28;20188;-78
2021/09/06 11:23:19;;;;;;;4.97;3.17;;;;;;;24.72;100.00;97246.63;5049282;28;20185;-78
2021/09/06 11:25:49;;;;;;;3.70;3.23;;;;;;;24.79;100.00;97244.69;5048864;28;20243;-78
2021/09/06 11:28:17;;;;;;;3.77;3.40;;;;;;;25.01;100.00;97242.38;5048877;28;20201;-78